createdAt,value
2023-05-19T00:02:40.920Z,13.91
2023-05-19T00:07:42.594Z,14.20
2023-05-19T00:12:44.138Z,14.16
2023-05-19T00:17:45.750Z,14.49
2023-05-19T00:22:47.366Z,14.46
2023-05-19T00:27:48.912Z,14.64
2023-05-19T00:32:50.600Z,14.56
2023-05-19T00:37:52.236Z,15.14
2023-05-19T00:42:53.758Z,15.24
2023-05-19T00:47:55.432Z,14.95
2023-05-19T00:52:57.188Z,15.37
2023-05-19T00:57:58.726Z,15.43
2023-05-19T01:03:00.358Z,15.42
2023-05-19T01:08:01.968Z,14.95
2023-05-19T01:13:04.425Z,15.10
2023-05-19T01:18:11.218Z,14.97
2023-05-19T01:23:24.100Z,15.41
2023-05-19T01:28:25.545Z,15.53
2023-05-19T01:33:27.183Z,15.53
2023-05-19T01:38:28.763Z,15.31
2023-05-19T01:43:30.330Z,15.47
2023-05-19T01:48:31.866Z,15.16
2023-05-19T01:53:33.391Z,15.34
2023-05-19T01:58:38.856Z,15.40
2023-05-19T02:04:06.733Z,15.36
2023-05-19T02:09:13.070Z,15.46
2023-05-19T02:15:00.928Z,15.43
2023-05-19T02:20:04.497Z,15.44
2023-05-19T02:25:06.439Z,15.41
2023-05-19T02:30:08.835Z,15.48
2023-05-19T02:35:10.396Z,15.16
2023-05-19T02:40:12.023Z,14.77
2023-05-19T02:45:13.583Z,14.41
2023-05-19T02:50:15.146Z,14.64
2023-05-19T02:55:17.643Z,15.14
2023-05-19T03:00:19.414Z,14.91
2023-05-19T03:05:20.994Z,15.07
2023-05-19T03:10:22.927Z,14.88
2023-05-19T03:15:24.479Z,14.92
2023-05-19T03:20:26.027Z,14.83
2023-05-19T03:25:27.595Z,14.65
2023-05-19T03:30:29.130Z,15.06
2023-05-19T03:35:30.796Z,15.15
2023-05-19T03:40:32.512Z,15.01
2023-05-19T03:45:34.257Z,14.82
2023-05-19T03:50:38.000Z,15.11
2023-05-19T03:55:39.554Z,14.95
2023-05-19T04:00:41.089Z,14.96
2023-05-19T04:05:42.633Z,14.53
2023-05-19T04:10:44.190Z,14.72
2023-05-19T04:15:45.715Z,14.55
2023-05-19T04:20:47.559Z,15.10
2023-05-19T04:25:49.360Z,15.41
2023-05-19T04:30:51.612Z,15.48
2023-05-19T04:35:53.304Z,15.53
2023-05-19T04:40:56.344Z,15.64
2023-05-19T04:45:58.216Z,15.73
2023-05-19T04:51:01.606Z,15.87
2023-05-19T04:56:03.529Z,15.94
2023-05-19T05:01:05.286Z,15.98
2023-05-19T05:06:06.850Z,15.97
2023-05-19T05:11:08.710Z,16.09
2023-05-19T05:16:11.348Z,16.04
2023-05-19T05:21:12.762Z,16.13
2023-05-19T05:26:18.606Z,15.85
2023-05-19T05:31:20.167Z,15.95
2023-05-19T05:36:21.712Z,16.14
2023-05-19T05:41:23.254Z,15.96
2023-05-19T05:46:24.904Z,16.17
2023-05-19T05:51:27.246Z,16.21
2023-05-19T05:56:29.098Z,16.15
2023-05-19T06:01:31.599Z,16.22
2023-05-19T06:06:34.197Z,16.18
2023-05-19T06:11:35.875Z,16.50
2023-05-19T06:16:37.574Z,16.47
2023-05-19T06:21:39.319Z,16.54
2023-05-19T06:26:40.896Z,16.62
2023-05-19T06:31:42.558Z,16.50
2023-05-19T06:36:44.108Z,16.96
2023-05-19T06:41:45.630Z,17.00
2023-05-19T06:46:47.204Z,17.07
2023-05-19T06:51:49.210Z,16.83
2023-05-19T06:56:50.830Z,17.08
2023-05-19T07:01:52.481Z,17.10
2023-05-19T07:06:55.019Z,17.08
2023-05-19T07:11:56.538Z,17.22
2023-05-19T07:16:58.061Z,17.10
2023-05-19T07:21:59.589Z,17.36
2023-05-19T07:27:01.444Z,17.38
2023-05-19T07:32:03.038Z,17.54
2023-05-19T07:37:04.839Z,17.41
2023-05-19T07:42:06.389Z,17.64
2023-05-19T07:47:07.986Z,17.94
2023-05-19T07:52:09.523Z,17.79
2023-05-19T07:57:11.339Z,18.27
2023-05-19T08:02:12.999Z,18.51
2023-05-19T08:07:14.569Z,18.44
2023-05-19T08:12:16.103Z,18.41
2023-05-19T08:17:17.631Z,18.38
2023-05-19T08:22:19.190Z,18.70
2023-05-19T08:27:20.797Z,18.63
2023-05-19T08:32:22.380Z,18.71
2023-05-19T08:37:24.003Z,18.72
2023-05-19T08:42:25.541Z,18.78
2023-05-19T08:47:27.954Z,18.68
2023-05-19T08:52:33.246Z,18.40
2023-05-19T08:57:34.786Z,19.33
2023-05-19T09:02:36.837Z,19.59
2023-05-19T09:07:38.462Z,19.67
2023-05-19T09:12:45.473Z,19.98
2023-05-19T09:17:48.111Z,19.70
2023-05-19T09:22:50.638Z,19.99
2023-05-19T09:27:53.834Z,19.84
2023-05-19T09:32:55.428Z,20.12
2023-05-19T09:37:57.005Z,20.27
2023-05-19T09:42:58.551Z,20.32
2023-05-19T09:48:00.179Z,20.55
2023-05-19T09:53:01.834Z,20.83
2023-05-19T09:58:04.817Z,21.00
2023-05-19T10:03:06.437Z,21.15
2023-05-19T10:08:10.287Z,20.81
2023-05-19T10:13:12.371Z,21.12
2023-05-19T10:18:13.945Z,21.28
2023-05-19T10:23:15.503Z,21.41
2023-05-19T10:28:17.427Z,21.03
2023-05-19T10:33:19.235Z,20.80
2023-05-19T10:38:24.950Z,21.19
2023-05-19T10:43:49.553Z,19.30
2023-05-19T10:48:51.120Z,18.70
2023-05-19T10:53:54.105Z,18.89
2023-05-19T10:58:56.418Z,18.98
2023-05-19T11:03:58.118Z,19.84
2023-05-19T11:09:09.023Z,19.75
2023-05-19T11:14:11.881Z,19.06
2023-05-19T11:19:20.234Z,19.74
2023-05-19T11:24:35.848Z,19.97
2023-05-19T11:29:37.442Z,20.07
2023-05-19T11:34:39.035Z,19.94
2023-05-19T11:39:40.647Z,20.62
2023-05-19T11:44:48.692Z,20.62
2023-05-19T11:49:51.952Z,20.89
2023-05-19T11:54:53.662Z,21.15
2023-05-19T11:59:56.747Z,20.99
2023-05-19T12:04:58.370Z,20.65
2023-05-19T12:09:59.918Z,20.08
2023-05-19T12:15:02.710Z,20.91
2023-05-19T12:20:04.936Z,21.18
2023-05-19T12:25:06.582Z,20.94
2023-05-19T12:30:08.869Z,21.69
2023-05-19T12:35:10.675Z,21.52
2023-05-19T12:40:14.935Z,21.85
2023-05-19T12:45:16.477Z,21.11
2023-05-19T12:50:18.081Z,21.69
2023-05-19T12:55:20.906Z,21.05
2023-05-19T13:00:25.613Z,21.17
2023-05-19T13:05:28.069Z,21.67
2023-05-19T13:10:29.824Z,21.88
2023-05-19T13:15:34.324Z,22.36
2023-05-19T13:20:36.590Z,22.97
2023-05-19T13:25:38.169Z,22.44
2023-05-19T13:30:40.492Z,22.07
2023-05-19T13:35:42.086Z,21.55
2023-05-19T13:40:44.266Z,21.57
2023-05-19T13:45:45.964Z,21.03
2023-05-19T13:50:47.549Z,21.64
2023-05-19T13:55:49.131Z,21.17
2023-05-19T14:00:54.474Z,20.05
2023-05-19T14:05:56.008Z,20.53
2023-05-19T14:10:57.544Z,21.29
2023-05-19T14:15:59.132Z,20.70
2023-05-19T14:21:00.770Z,21.97
2023-05-19T14:26:02.321Z,21.86
2023-05-19T14:31:03.927Z,20.52
2023-05-19T14:36:06.311Z,20.42
2023-05-19T14:41:07.907Z,19.74
2023-05-19T14:46:09.466Z,19.74
2023-05-19T14:51:10.993Z,20.15
2023-05-19T14:56:12.592Z,20.77
2023-05-19T15:01:14.239Z,20.40
2023-05-19T15:06:15.999Z,20.87
2023-05-19T15:11:17.564Z,20.75
2023-05-19T15:16:19.095Z,20.54
2023-05-19T15:21:20.634Z,19.78
2023-05-19T15:26:22.377Z,20.56
2023-05-19T15:31:24.060Z,19.99
2023-05-19T15:36:25.688Z,19.58
2023-05-19T15:41:27.224Z,20.07
2023-05-19T15:46:29.312Z,19.50
2023-05-19T15:51:31.638Z,19.88
2023-05-19T15:56:33.227Z,19.93
2023-05-19T16:01:35.018Z,19.39
2023-05-19T16:06:36.589Z,19.35
2023-05-19T16:11:38.128Z,19.37
2023-05-19T16:16:39.701Z,18.98
2023-05-19T16:21:41.347Z,19.41
2023-05-19T16:26:42.891Z,18.82
2023-05-19T16:31:44.475Z,18.79
2023-05-19T16:36:46.056Z,18.59
2023-05-19T16:41:47.606Z,18.56
2023-05-19T16:46:49.161Z,18.67
2023-05-19T16:51:52.750Z,17.65
2023-05-19T16:56:54.392Z,18.09
2023-05-19T17:01:58.589Z,17.73
2023-05-19T17:07:00.138Z,17.27
2023-05-19T17:12:01.677Z,17.92
2023-05-19T17:17:03.335Z,17.61
2023-05-19T17:22:04.965Z,16.96
2023-05-19T17:27:06.530Z,16.63
2023-05-19T17:32:08.086Z,16.11
2023-05-19T17:37:09.833Z,16.32
2023-05-19T17:42:11.380Z,16.62
2023-05-19T17:47:13.041Z,16.59
2023-05-19T17:52:15.855Z,16.38
2023-05-19T17:57:17.605Z,16.41
2023-05-19T18:02:19.335Z,16.93
2023-05-19T18:07:20.892Z,16.37
2023-05-19T18:12:22.794Z,16.44
2023-05-19T18:17:24.385Z,16.57
2023-05-19T18:22:26.207Z,16.44
2023-05-19T18:27:27.922Z,16.55
2023-05-19T18:32:29.550Z,16.35
2023-05-19T18:37:31.570Z,16.16
2023-05-19T18:42:33.128Z,16.49
2023-05-19T18:47:34.735Z,16.27
2023-05-19T18:52:36.297Z,15.96
2023-05-19T18:57:37.876Z,16.26
2023-05-19T19:02:39.424Z,15.97
2023-05-19T19:07:41.468Z,16.06
2023-05-19T19:12:43.034Z,16.22
2023-05-19T19:17:45.604Z,16.40
2023-05-19T19:22:47.377Z,16.28
2023-05-19T19:27:48.934Z,15.73
2023-05-19T19:32:50.540Z,16.26
2023-05-19T19:37:52.129Z,16.02
2023-05-19T19:42:53.661Z,15.83
2023-05-19T19:47:55.254Z,16.01
2023-05-19T19:52:56.806Z,15.80
2023-05-19T19:57:58.378Z,16.52
2023-05-19T20:03:04.363Z,16.40
2023-05-19T20:08:06.904Z,16.37
2023-05-19T20:13:08.585Z,16.34
2023-05-19T20:18:10.912Z,16.12
2023-05-19T20:23:13.375Z,16.18
2023-05-19T20:28:14.947Z,15.19
2023-05-19T20:33:16.561Z,15.15
2023-05-19T20:38:18.090Z,15.31
2023-05-19T20:43:19.630Z,15.83
2023-05-19T20:48:21.203Z,15.99
2023-05-19T20:53:22.736Z,15.96
2023-05-19T20:58:26.699Z,15.97
2023-05-19T21:03:28.635Z,16.46
2023-05-19T21:08:30.413Z,16.37
2023-05-19T21:13:32.354Z,16.53
2023-05-19T21:18:34.882Z,15.91
2023-05-19T21:23:36.315Z,16.35
2023-05-19T21:28:37.845Z,16.59
2023-05-19T21:33:39.390Z,16.50
2023-05-19T21:38:40.971Z,15.99
2023-05-19T21:43:44.739Z,15.71
2023-05-19T21:48:46.801Z,16.50
2023-05-19T21:53:48.345Z,15.60
2023-05-19T21:58:49.916Z,15.74
2023-05-19T22:03:51.477Z,15.97
2023-05-19T22:08:53.067Z,15.62
2023-05-19T22:13:54.811Z,16.08
2023-05-19T22:18:56.623Z,15.87
2023-05-19T22:23:58.172Z,15.46
2023-05-19T22:28:59.708Z,15.20
2023-05-19T22:34:01.262Z,15.30
2023-05-19T22:39:02.859Z,15.03
2023-05-19T22:44:04.411Z,15.61
2023-05-19T22:49:06.018Z,15.67
2023-05-19T22:54:07.876Z,15.71
2023-05-19T22:59:09.424Z,15.39
2023-05-19T23:04:11.510Z,15.57
2023-05-19T23:09:13.401Z,15.98
2023-05-19T23:14:14.959Z,15.68
2023-05-19T23:19:17.086Z,15.45
2023-05-19T23:24:18.791Z,15.65
2023-05-19T23:29:20.471Z,15.31
2023-05-19T23:34:22.041Z,15.62
2023-05-19T23:39:25.227Z,16.09
2023-05-19T23:44:27.296Z,15.64
2023-05-19T23:49:28.880Z,16.04
2023-05-19T23:54:31.017Z,16.13
2023-05-19T23:59:32.568Z,16.52
